sensor_id;sensor_type;location;lat;lon;timestamp;P1;durP1;ratioP1;P2;durP2;ratioP2
76604;SDS011;73179;50.978;16.998;2024-01-10T00:01:48;144.63;;;65.88;;
76604;SDS011;73179;50.978;16.998;2024-01-10T00:04:14;127.28;;;55.50;;
76604;SDS011;73179;50.978;16.998;2024-01-10T00:06:42;142.90;;;57.53;;
76604;SDS011;73179;50.978;16.998;2024-01-10T00:09:09;123.75;;;53.88;;
76604;SDS011;73179;50.978;16.998;2024-01-10T00:11:35;114.32;;;47.25;;
76604;SDS011;73179;50.978;16.998;2024-01-10T00:14:01;120.70;;;52.05;;
76604;SDS011;73179;50.978;16.998;2024-01-10T00:16:29;112.57;;;47.72;;
76604;SDS011;73179;50.978;16.998;2024-01-10T00:18:54;91.72;;;42.65;;
76604;SDS011;73179;50.978;16.998;2024-01-10T00:21:21;86.57;;;39.28;;
76604;SDS011;73179;50.978;16.998;2024-01-10T00:23:46;90.18;;;44.33;;
76604;SDS011;73179;50.978;16.998;2024-01-10T00:26:13;74.28;;;40.92;;
76604;SDS011;73179;50.978;16.998;2024-01-10T00:28:39;53.72;;;30.17;;
76604;SDS011;73179;50.978;16.998;2024-01-10T00:31:05;114.03;;;49.47;;
76604;SDS011;73179;50.978;16.998;2024-01-10T00:33:31;129.82;;;59.17;;
76604;SDS011;73179;50.978;16.998;2024-01-10T00:35:57;84.90;;;41.97;;
76604;SDS011;73179;50.978;16.998;2024-01-10T00:38:23;99.38;;;43.55;;
76604;SDS011;73179;50.978;16.998;2024-01-10T00:40:50;54.92;;;29.33;;
76604;SDS011;73179;50.978;16.998;2024-01-10T00:43:15;68.88;;;33.03;;
76604;SDS011;73179;50.978;16.998;2024-01-10T00:45:42;74.15;;;38.70;;
76604;SDS011;73179;50.978;16.998;2024-01-10T00:48:07;103.97;;;47.47;;
76604;SDS011;73179;50.978;16.998;2024-01-10T00:50:34;148.05;;;62.08;;
76604;SDS011;73179;50.978;16.998;2024-01-10T00:53:00;145.75;;;63.83;;
76604;SDS011;73179;50.978;16.998;2024-01-10T00:55:26;151.02;;;64.00;;
76604;SDS011;73179;50.978;16.998;2024-01-10T00:57:51;127.63;;;54.80;;
76604;SDS011;73179;50.978;16.998;2024-01-10T01:00:18;138.10;;;59.50;;
76604;SDS011;73179;50.978;16.998;2024-01-10T01:02:43;137.93;;;61.33;;
76604;SDS011;73179;50.978;16.998;2024-01-10T01:05:10;136.68;;;56.47;;
76604;SDS011;73179;50.978;16.998;2024-01-10T01:07:36;132.45;;;56.53;;
76604;SDS011;73179;50.978;16.998;2024-01-10T01:10:03;125.13;;;53.17;;
76604;SDS011;73179;50.978;16.998;2024-01-10T01:14:55;119.13;;;53.03;;
76604;SDS011;73179;50.978;16.998;2024-01-10T01:17:21;155.20;;;64.93;;
76604;SDS011;73179;50.978;16.998;2024-01-10T01:19:47;155.88;;;61.97;;
76604;SDS011;73179;50.978;16.998;2024-01-10T01:22:14;140.00;;;61.88;;
76604;SDS011;73179;50.978;16.998;2024-01-10T01:24:40;158.18;;;67.13;;
76604;SDS011;73179;50.978;16.998;2024-01-10T01:27:06;142.70;;;65.90;;
76604;SDS011;73179;50.978;16.998;2024-01-10T01:29:32;154.00;;;69.60;;
76604;SDS011;73179;50.978;16.998;2024-01-10T01:31:58;163.90;;;72.78;;
76604;SDS011;73179;50.978;16.998;2024-01-10T01:34:24;143.68;;;63.67;;
76604;SDS011;73179;50.978;16.998;2024-01-10T01:36:50;146.10;;;66.10;;
76604;SDS011;73179;50.978;16.998;2024-01-10T01:39:18;145.70;;;70.47;;
76604;SDS011;73179;50.978;16.998;2024-01-10T01:41:44;140.02;;;65.82;;
76604;SDS011;73179;50.978;16.998;2024-01-10T01:44:10;142.45;;;61.22;;
76604;SDS011;73179;50.978;16.998;2024-01-10T01:46:36;150.45;;;67.75;;
76604;SDS011;73179;50.978;16.998;2024-01-10T01:51:29;152.15;;;70.22;;
76604;SDS011;73179;50.978;16.998;2024-01-10T01:53:57;134.25;;;62.55;;
76604;SDS011;73179;50.978;16.998;2024-01-10T01:56:23;139.75;;;61.25;;
76604;SDS011;73179;50.978;16.998;2024-01-10T01:58:50;139.65;;;63.05;;
76604;SDS011;73179;50.978;16.998;2024-01-10T02:01:17;136.95;;;59.65;;
76604;SDS011;73179;50.978;16.998;2024-01-10T02:03:47;145.88;;;64.00;;
76604;SDS011;73179;50.978;16.998;2024-01-10T02:06:13;147.02;;;72.32;;
76604;SDS011;73179;50.978;16.998;2024-01-10T02:08:39;161.82;;;71.68;;
76604;SDS011;73179;50.978;16.998;2024-01-10T02:11:06;152.73;;;70.18;;
76604;SDS011;73179;50.978;16.998;2024-01-10T02:13:32;135.30;;;57.13;;
76604;SDS011;73179;50.978;16.998;2024-01-10T02:15:59;147.98;;;63.33;;
76604;SDS011;73179;50.978;16.998;2024-01-10T02:18:26;141.15;;;68.93;;
76604;SDS011;73179;50.978;16.998;2024-01-10T02:20:52;142.00;;;67.90;;
76604;SDS011;73179;50.978;16.998;2024-01-10T02:23:18;130.00;;;60.65;;
76604;SDS011;73179;50.978;16.998;2024-01-10T02:25:44;130.80;;;60.15;;
76604;SDS011;73179;50.978;16.998;2024-01-10T02:28:10;146.93;;;65.68;;
76604;SDS011;73179;50.978;16.998;2024-01-10T02:30:36;129.95;;;61.22;;
76604;SDS011;73179;50.978;16.998;2024-01-10T02:33:03;144.35;;;67.70;;
76604;SDS011;73179;50.978;16.998;2024-01-10T02:35:29;142.80;;;61.28;;
76604;SDS011;73179;50.978;16.998;2024-01-10T02:37:58;141.90;;;62.97;;
76604;SDS011;73179;50.978;16.998;2024-01-10T02:40:24;120.88;;;55.85;;
76604;SDS011;73179;50.978;16.998;2024-01-10T02:42:51;127.82;;;59.25;;
76604;SDS011;73179;50.978;16.998;2024-01-10T02:45:17;126.05;;;53.15;;
76604;SDS011;73179;50.978;16.998;2024-01-10T02:50:10;127.22;;;53.45;;
76604;SDS011;73179;50.978;16.998;2024-01-10T02:55:02;113.43;;;51.28;;
76604;SDS011;73179;50.978;16.998;2024-01-10T02:57:29;101.47;;;47.90;;
76604;SDS011;73179;50.978;16.998;2024-01-10T02:59:55;99.82;;;44.80;;
76604;SDS011;73179;50.978;16.998;2024-01-10T03:02:21;104.10;;;47.45;;
76604;SDS011;73179;50.978;16.998;2024-01-10T03:04:49;138.15;;;60.80;;
76604;SDS011;73179;50.978;16.998;2024-01-10T03:07:15;146.93;;;70.20;;
76604;SDS011;73179;50.978;16.998;2024-01-10T03:09:41;130.25;;;60.63;;
76604;SDS011;73179;50.978;16.998;2024-01-10T03:12:09;124.68;;;54.28;;
76604;SDS011;73179;50.978;16.998;2024-01-10T03:14:36;143.40;;;59.55;;
76604;SDS011;73179;50.978;16.998;2024-01-10T03:17:02;123.82;;;53.10;;
76604;SDS011;73179;50.978;16.998;2024-01-10T03:19:28;130.70;;;57.97;;
76604;SDS011;73179;50.978;16.998;2024-01-10T03:21:55;127.22;;;51.85;;
76604;SDS011;73179;50.978;16.998;2024-01-10T03:24:20;130.93;;;56.83;;
76604;SDS011;73179;50.978;16.998;2024-01-10T03:26:49;119.00;;;50.60;;
76604;SDS011;73179;50.978;16.998;2024-01-10T03:29:15;133.85;;;61.55;;
76604;SDS011;73179;50.978;16.998;2024-01-10T03:31:41;138.02;;;64.95;;
76604;SDS011;73179;50.978;16.998;2024-01-10T03:34:07;134.75;;;63.15;;
76604;SDS011;73179;50.978;16.998;2024-01-10T03:36:33;144.30;;;63.90;;
76604;SDS011;73179;50.978;16.998;2024-01-10T03:38:59;147.73;;;69.85;;
76604;SDS011;73179;50.978;16.998;2024-01-10T03:41:26;150.23;;;74.93;;
76604;SDS011;73179;50.978;16.998;2024-01-10T03:43:52;154.30;;;73.00;;
76604;SDS011;73179;50.978;16.998;2024-01-10T03:46:18;165.48;;;74.70;;
76604;SDS011;73179;50.978;16.998;2024-01-10T03:48:44;158.40;;;76.60;;
76604;SDS011;73179;50.978;16.998;2024-01-10T03:51:14;154.75;;;71.18;;
76604;SDS011;73179;50.978;16.998;2024-01-10T03:53:41;139.70;;;65.18;;
76604;SDS011;73179;50.978;16.998;2024-01-10T03:56:07;152.57;;;70.93;;
76604;SDS011;73179;50.978;16.998;2024-01-10T03:58:34;153.75;;;72.10;;
76604;SDS011;73179;50.978;16.998;2024-01-10T04:01:03;150.18;;;68.68;;
76604;SDS011;73179;50.978;16.998;2024-01-10T04:03:30;143.60;;;66.03;;
76604;SDS011;73179;50.978;16.998;2024-01-10T04:05:56;157.30;;;73.53;;
76604;SDS011;73179;50.978;16.998;2024-01-10T04:08:22;159.57;;;70.05;;
76604;SDS011;73179;50.978;16.998;2024-01-10T04:10:48;136.25;;;72.03;;
76604;SDS011;73179;50.978;16.998;2024-01-10T04:13:14;143.75;;;67.20;;
76604;SDS011;73179;50.978;16.998;2024-01-10T04:18:06;152.35;;;67.07;;
76604;SDS011;73179;50.978;16.998;2024-01-10T04:20:33;156.30;;;67.45;;
76604;SDS011;73179;50.978;16.998;2024-01-10T04:22:59;151.57;;;66.57;;
76604;SDS011;73179;50.978;16.998;2024-01-10T04:25:25;161.65;;;72.38;;
76604;SDS011;73179;50.978;16.998;2024-01-10T04:27:51;130.75;;;59.00;;
76604;SDS011;73179;50.978;16.998;2024-01-10T04:32:43;138.15;;;62.13;;
76604;SDS011;73179;50.978;16.998;2024-01-10T04:35:10;130.32;;;58.47;;
76604;SDS011;73179;50.978;16.998;2024-01-10T04:37:36;128.50;;;62.03;;
76604;SDS011;73179;50.978;16.998;2024-01-10T04:40:02;149.00;;;62.90;;
76604;SDS011;73179;50.978;16.998;2024-01-10T04:42:29;157.05;;;70.03;;
76604;SDS011;73179;50.978;16.998;2024-01-10T04:44:56;145.52;;;67.60;;
76604;SDS011;73179;50.978;16.998;2024-01-10T04:47:22;121.07;;;56.47;;
76604;SDS011;73179;50.978;16.998;2024-01-10T04:49:48;118.80;;;51.28;;
76604;SDS011;73179;50.978;16.998;2024-01-10T04:52:14;134.13;;;59.35;;
76604;SDS011;73179;50.978;16.998;2024-01-10T04:54:40;142.68;;;60.47;;
76604;SDS011;73179;50.978;16.998;2024-01-10T04:57:06;134.35;;;59.03;;
76604;SDS011;73179;50.978;16.998;2024-01-10T04:59:33;130.52;;;58.20;;
76604;SDS011;73179;50.978;16.998;2024-01-10T05:02:05;155.10;;;67.03;;
76604;SDS011;73179;50.978;16.998;2024-01-10T05:04:31;149.50;;;67.68;;
76604;SDS011;73179;50.978;16.998;2024-01-10T05:06:57;144.95;;;62.10;;
76604;SDS011;73179;50.978;16.998;2024-01-10T05:09:23;139.65;;;60.83;;
76604;SDS011;73179;50.978;16.998;2024-01-10T05:11:49;123.72;;;52.42;;
76604;SDS011;73179;50.978;16.998;2024-01-10T05:14:17;126.65;;;52.85;;
76604;SDS011;73179;50.978;16.998;2024-01-10T05:16:46;109.97;;;49.65;;
76604;SDS011;73179;50.978;16.998;2024-01-10T05:19:13;132.82;;;54.35;;
76604;SDS011;73179;50.978;16.998;2024-01-10T05:21:39;122.80;;;54.75;;
76604;SDS011;73179;50.978;16.998;2024-01-10T05:24:06;136.18;;;55.95;;
76604;SDS011;73179;50.978;16.998;2024-01-10T05:26:32;129.95;;;53.40;;
76604;SDS011;73179;50.978;16.998;2024-01-10T05:28:58;135.95;;;59.53;;
76604;SDS011;73179;50.978;16.998;2024-01-10T05:31:24;142.23;;;62.20;;
76604;SDS011;73179;50.978;16.998;2024-01-10T05:33:50;134.27;;;58.03;;
76604;SDS011;73179;50.978;16.998;2024-01-10T05:36:15;122.53;;;50.78;;
76604;SDS011;73179;50.978;16.998;2024-01-10T05:38:42;149.68;;;65.90;;
76604;SDS011;73179;50.978;16.998;2024-01-10T05:41:08;161.68;;;71.85;;
76604;SDS011;73179;50.978;16.998;2024-01-10T05:43:35;168.50;;;72.35;;
76604;SDS011;73179;50.978;16.998;2024-01-10T05:46:00;131.48;;;59.33;;
76604;SDS011;73179;50.978;16.998;2024-01-10T05:50:53;164.90;;;69.03;;
76604;SDS011;73179;50.978;16.998;2024-01-10T05:53:19;169.18;;;73.93;;
76604;SDS011;73179;50.978;16.998;2024-01-10T05:55:45;140.02;;;63.38;;
76604;SDS011;73179;50.978;16.998;2024-01-10T05:58:11;181.35;;;81.93;;
76604;SDS011;73179;50.978;16.998;2024-01-10T06:00:37;176.65;;;82.97;;
76604;SDS011;73179;50.978;16.998;2024-01-10T06:03:04;175.25;;;82.97;;
76604;SDS011;73179;50.978;16.998;2024-01-10T06:07:59;169.75;;;76.38;;
76604;SDS011;73179;50.978;16.998;2024-01-10T06:10:25;177.57;;;88.30;;
76604;SDS011;73179;50.978;16.998;2024-01-10T06:12:51;187.85;;;91.22;;
76604;SDS011;73179;50.978;16.998;2024-01-10T06:15:17;171.23;;;73.90;;
76604;SDS011;73179;50.978;16.998;2024-01-10T06:20:09;177.73;;;89.88;;
76604;SDS011;73179;50.978;16.998;2024-01-10T06:22:36;183.20;;;92.00;;
76604;SDS011;73179;50.978;16.998;2024-01-10T06:25:02;180.63;;;87.20;;
76604;SDS011;73179;50.978;16.998;2024-01-10T06:29:55;190.02;;;86.57;;
76604;SDS011;73179;50.978;16.998;2024-01-10T06:32:21;179.15;;;87.28;;
76604;SDS011;73179;50.978;16.998;2024-01-10T06:34:47;193.57;;;93.65;;
76604;SDS011;73179;50.978;16.998;2024-01-10T06:37:13;195.73;;;89.97;;
76604;SDS011;73179;50.978;16.998;2024-01-10T06:39:39;187.23;;;85.70;;
76604;SDS011;73179;50.978;16.998;2024-01-10T06:42:07;175.70;;;84.50;;
76604;SDS011;73179;50.978;16.998;2024-01-10T06:44:36;186.07;;;88.78;;
76604;SDS011;73179;50.978;16.998;2024-01-10T06:47:02;189.00;;;87.65;;
76604;SDS011;73179;50.978;16.998;2024-01-10T06:49:29;175.90;;;82.22;;
76604;SDS011;73179;50.978;16.998;2024-01-10T06:51:55;188.10;;;92.75;;
76604;SDS011;73179;50.978;16.998;2024-01-10T06:54:21;188.35;;;88.53;;
76604;SDS011;73179;50.978;16.998;2024-01-10T06:56:48;186.68;;;91.22;;
76604;SDS011;73179;50.978;16.998;2024-01-10T06:59:13;184.15;;;86.82;;
76604;SDS011;73179;50.978;16.998;2024-01-10T07:01:40;180.82;;;86.15;;
76604;SDS011;73179;50.978;16.998;2024-01-10T07:04:06;179.75;;;82.65;;
76604;SDS011;73179;50.978;16.998;2024-01-10T07:06:32;164.05;;;77.03;;
76604;SDS011;73179;50.978;16.998;2024-01-10T07:08:59;186.60;;;88.32;;
76604;SDS011;73179;50.978;16.998;2024-01-10T07:11:26;190.18;;;87.20;;
76604;SDS011;73179;50.978;16.998;2024-01-10T07:13:53;165.75;;;74.72;;
76604;SDS011;73179;50.978;16.998;2024-01-10T07:16:19;183.25;;;86.00;;
76604;SDS011;73179;50.978;16.998;2024-01-10T07:18:46;177.25;;;81.70;;
76604;SDS011;73179;50.978;16.998;2024-01-10T07:21:13;170.93;;;77.38;;
76604;SDS011;73179;50.978;16.998;2024-01-10T07:23:39;178.98;;;79.55;;
76604;SDS011;73179;50.978;16.998;2024-01-10T07:26:06;189.00;;;85.60;;
76604;SDS011;73179;50.978;16.998;2024-01-10T07:28:32;170.07;;;74.10;;
76604;SDS011;73179;50.978;16.998;2024-01-10T07:30:58;165.65;;;75.47;;
76604;SDS011;73179;50.978;16.998;2024-01-10T07:33:27;152.52;;;67.10;;
76604;SDS011;73179;50.978;16.998;2024-01-10T07:35:57;156.77;;;67.68;;
76604;SDS011;73179;50.978;16.998;2024-01-10T07:38:23;168.90;;;76.43;;
76604;SDS011;73179;50.978;16.998;2024-01-10T07:40:49;165.82;;;70.93;;
76604;SDS011;73179;50.978;16.998;2024-01-10T07:43:15;152.18;;;71.15;;
76604;SDS011;73179;50.978;16.998;2024-01-10T07:45:42;166.70;;;74.93;;
76604;SDS011;73179;50.978;16.998;2024-01-10T07:48:08;171.23;;;73.93;;
76604;SDS011;73179;50.978;16.998;2024-01-10T07:50:34;167.02;;;69.75;;
76604;SDS011;73179;50.978;16.998;2024-01-10T07:53:00;178.93;;;73.88;;
76604;SDS011;73179;50.978;16.998;2024-01-10T07:55:27;168.13;;;78.38;;
76604;SDS011;73179;50.978;16.998;2024-01-10T07:57:55;168.90;;;76.85;;
76604;SDS011;73179;50.978;16.998;2024-01-10T08:00:21;172.73;;;79.03;;
76604;SDS011;73179;50.978;16.998;2024-01-10T08:02:47;165.23;;;74.20;;
76604;SDS011;73179;50.978;16.998;2024-01-10T08:05:15;164.88;;;71.13;;
76604;SDS011;73179;50.978;16.998;2024-01-10T08:07:41;158.65;;;73.45;;
76604;SDS011;73179;50.978;16.998;2024-01-10T08:10:09;159.60;;;70.15;;
76604;SDS011;73179;50.978;16.998;2024-01-10T08:12:39;176.70;;;78.40;;
76604;SDS011;73179;50.978;16.998;2024-01-10T08:15:07;174.02;;;76.25;;
76604;SDS011;73179;50.978;16.998;2024-01-10T08:17:33;165.25;;;74.53;;
76604;SDS011;73179;50.978;16.998;2024-01-10T08:20:00;160.10;;;72.60;;
76604;SDS011;73179;50.978;16.998;2024-01-10T08:22:26;152.27;;;71.90;;
76604;SDS011;73179;50.978;16.998;2024-01-10T08:24:52;142.60;;;66.15;;
76604;SDS011;73179;50.978;16.998;2024-01-10T08:27:18;145.18;;;64.30;;
76604;SDS011;73179;50.978;16.998;2024-01-10T08:29:44;152.10;;;67.38;;
76604;SDS011;73179;50.978;16.998;2024-01-10T08:32:10;158.68;;;65.68;;
76604;SDS011;73179;50.978;16.998;2024-01-10T08:34:37;148.38;;;65.53;;
76604;SDS011;73179;50.978;16.998;2024-01-10T08:37:03;159.38;;;69.50;;
76604;SDS011;73179;50.978;16.998;2024-01-10T08:39:30;164.68;;;74.28;;
76604;SDS011;73179;50.978;16.998;2024-01-10T08:41:56;167.30;;;78.30;;
76604;SDS011;73179;50.978;16.998;2024-01-10T08:44:23;155.55;;;69.38;;
76604;SDS011;73179;50.978;16.998;2024-01-10T08:46:49;170.23;;;77.60;;
76604;SDS011;73179;50.978;16.998;2024-01-10T08:49:18;159.20;;;73.40;;
76604;SDS011;73179;50.978;16.998;2024-01-10T08:51:44;162.77;;;81.35;;
76604;SDS011;73179;50.978;16.998;2024-01-10T08:54:12;186.38;;;90.32;;
76604;SDS011;73179;50.978;16.998;2024-01-10T08:56:51;192.90;;;87.97;;
76604;SDS011;73179;50.978;16.998;2024-01-10T08:59:17;171.88;;;85.43;;
76604;SDS011;73179;50.978;16.998;2024-01-10T09:01:44;171.50;;;86.15;;
76604;SDS011;73179;50.978;16.998;2024-01-10T09:04:10;168.07;;;85.43;;
76604;SDS011;73179;50.978;16.998;2024-01-10T09:06:36;172.82;;;82.35;;
76604;SDS011;73179;50.978;16.998;2024-01-10T09:09:02;160.93;;;84.47;;
76604;SDS011;73179;50.978;16.998;2024-01-10T09:11:28;166.98;;;86.55;;
76604;SDS011;73179;50.978;16.998;2024-01-10T09:13:55;168.35;;;84.70;;
76604;SDS011;73179;50.978;16.998;2024-01-10T09:16:21;170.40;;;85.95;;
76604;SDS011;73179;50.978;16.998;2024-01-10T09:18:47;179.30;;;88.53;;
76604;SDS011;73179;50.978;16.998;2024-01-10T09:21:15;175.95;;;85.50;;
76604;SDS011;73179;50.978;16.998;2024-01-10T09:23:41;181.20;;;93.68;;
76604;SDS011;73179;50.978;16.998;2024-01-10T09:26:07;191.93;;;97.05;;
76604;SDS011;73179;50.978;16.998;2024-01-10T09:28:34;185.43;;;93.43;;
76604;SDS011;73179;50.978;16.998;2024-01-10T09:31:00;179.95;;;91.20;;
76604;SDS011;73179;50.978;16.998;2024-01-10T09:33:27;177.50;;;86.07;;
76604;SDS011;73179;50.978;16.998;2024-01-10T09:35:53;165.18;;;86.00;;
76604;SDS011;73179;50.978;16.998;2024-01-10T09:38:19;169.27;;;91.32;;
76604;SDS011;73179;50.978;16.998;2024-01-10T09:40:45;172.82;;;91.13;;
76604;SDS011;73179;50.978;16.998;2024-01-10T09:43:11;172.35;;;85.68;;
76604;SDS011;73179;50.978;16.998;2024-01-10T09:45:39;164.05;;;87.15;;
76604;SDS011;73179;50.978;16.998;2024-01-10T09:48:13;175.00;;;84.40;;
76604;SDS011;73179;50.978;16.998;2024-01-10T09:50:39;167.00;;;82.55;;
76604;SDS011;73179;50.978;16.998;2024-01-10T09:53:07;165.82;;;81.68;;
76604;SDS011;73179;50.978;16.998;2024-01-10T09:55:43;169.98;;;83.88;;
76604;SDS011;73179;50.978;16.998;2024-01-10T09:58:10;169.00;;;80.47;;
76604;SDS011;73179;50.978;16.998;2024-01-10T10:03:04;186.98;;;89.47;;
76604;SDS011;73179;50.978;16.998;2024-01-10T10:05:38;160.25;;;82.18;;
76604;SDS011;73179;50.978;16.998;2024-01-10T10:08:11;171.95;;;85.15;;
76604;SDS011;73179;50.978;16.998;2024-01-10T10:10:50;152.80;;;74.65;;
76604;SDS011;73179;50.978;16.998;2024-01-10T10:13:26;161.38;;;83.28;;
76604;SDS011;73179;50.978;16.998;2024-01-10T10:16:01;174.68;;;83.28;;
76604;SDS011;73179;50.978;16.998;2024-01-10T10:18:28;179.70;;;93.30;;
76604;SDS011;73179;50.978;16.998;2024-01-10T10:21:14;168.90;;;83.75;;
76604;SDS011;73179;50.978;16.998;2024-01-10T10:23:41;166.50;;;82.82;;
76604;SDS011;73179;50.978;16.998;2024-01-10T10:26:15;159.95;;;78.32;;
76604;SDS011;73179;50.978;16.998;2024-01-10T10:28:46;181.52;;;88.07;;
76604;SDS011;73179;50.978;16.998;2024-01-10T10:31:17;163.25;;;75.03;;
76604;SDS011;73179;50.978;16.998;2024-01-10T10:33:44;170.13;;;86.80;;
76604;SDS011;73179;50.978;16.998;2024-01-10T10:36:13;173.30;;;85.80;;
76604;SDS011;73179;50.978;16.998;2024-01-10T10:38:40;166.38;;;85.20;;
76604;SDS011;73179;50.978;16.998;2024-01-10T10:41:06;158.18;;;80.43;;
76604;SDS011;73179;50.978;16.998;2024-01-10T10:43:38;161.85;;;83.90;;
76604;SDS011;73179;50.978;16.998;2024-01-10T10:46:05;168.35;;;79.20;;
76604;SDS011;73179;50.978;16.998;2024-01-10T10:48:33;164.43;;;86.97;;
76604;SDS011;73179;50.978;16.998;2024-01-10T10:51:07;175.35;;;81.45;;
76604;SDS011;73179;50.978;16.998;2024-01-10T10:53:35;171.20;;;92.03;;
76604;SDS011;73179;50.978;16.998;2024-01-10T10:56:03;155.80;;;77.20;;
76604;SDS011;73179;50.978;16.998;2024-01-10T10:58:32;160.48;;;81.40;;
76604;SDS011;73179;50.978;16.998;2024-01-10T11:01:01;169.18;;;83.03;;
76604;SDS011;73179;50.978;16.998;2024-01-10T11:03:31;163.27;;;82.85;;
76604;SDS011;73179;50.978;16.998;2024-01-10T11:06:01;162.98;;;84.07;;
76604;SDS011;73179;50.978;16.998;2024-01-10T11:08:29;152.05;;;82.53;;
76604;SDS011;73179;50.978;16.998;2024-01-10T11:11:03;156.57;;;78.95;;
76604;SDS011;73179;50.978;16.998;2024-01-10T11:14:06;157.25;;;81.30;;
76604;SDS011;73179;50.978;16.998;2024-01-10T11:24:49;154.35;;;78.65;;
76604;SDS011;73179;50.978;16.998;2024-01-10T11:27:16;155.30;;;74.35;;
76604;SDS011;73179;50.978;16.998;2024-01-10T11:29:43;155.80;;;76.03;;
76604;SDS011;73179;50.978;16.998;2024-01-10T11:32:14;159.52;;;77.25;;
76604;SDS011;73179;50.978;16.998;2024-01-10T11:35:04;151.00;;;74.88;;
76604;SDS011;73179;50.978;16.998;2024-01-10T11:37:42;151.02;;;73.50;;
76604;SDS011;73179;50.978;16.998;2024-01-10T11:40:14;154.40;;;73.93;;
76604;SDS011;73179;50.978;16.998;2024-01-10T11:42:43;140.18;;;68.13;;
76604;SDS011;73179;50.978;16.998;2024-01-10T11:47:59;152.23;;;74.07;;
76604;SDS011;73179;50.978;16.998;2024-01-10T11:50:26;164.70;;;76.18;;
76604;SDS011;73179;50.978;16.998;2024-01-10T11:52:56;156.05;;;76.38;;
76604;SDS011;73179;50.978;16.998;2024-01-10T11:58:17;131.68;;;62.92;;
76604;SDS011;73179;50.978;16.998;2024-01-10T12:00:43;138.02;;;71.25;;
76604;SDS011;73179;50.978;16.998;2024-01-10T12:03:11;147.88;;;74.53;;
76604;SDS011;73179;50.978;16.998;2024-01-10T12:05:38;161.48;;;75.15;;
76604;SDS011;73179;50.978;16.998;2024-01-10T12:08:07;149.63;;;73.18;;
76604;SDS011;73179;50.978;16.998;2024-01-10T12:10:34;166.18;;;82.32;;
76604;SDS011;73179;50.978;16.998;2024-01-10T12:13:05;155.98;;;79.85;;
76604;SDS011;73179;50.978;16.998;2024-01-10T12:15:32;155.52;;;81.35;;
76604;SDS011;73179;50.978;16.998;2024-01-10T12:17:58;160.63;;;77.82;;
76604;SDS011;73179;50.978;16.998;2024-01-10T12:20:25;150.70;;;79.15;;
76604;SDS011;73179;50.978;16.998;2024-01-10T12:22:51;151.70;;;74.43;;
76604;SDS011;73179;50.978;16.998;2024-01-10T12:25:18;155.45;;;75.07;;
76604;SDS011;73179;50.978;16.998;2024-01-10T12:27:45;156.88;;;78.00;;
76604;SDS011;73179;50.978;16.998;2024-01-10T12:32:37;141.98;;;67.53;;
76604;SDS011;73179;50.978;16.998;2024-01-10T12:37:31;137.48;;;65.65;;
76604;SDS011;73179;50.978;16.998;2024-01-10T12:39:57;149.60;;;72.68;;
76604;SDS011;73179;50.978;16.998;2024-01-10T12:42:23;158.73;;;74.13;;
76604;SDS011;73179;50.978;16.998;2024-01-10T12:44:50;151.45;;;73.45;;
76604;SDS011;73179;50.978;16.998;2024-01-10T12:47:20;164.50;;;81.00;;
76604;SDS011;73179;50.978;16.998;2024-01-10T12:49:47;152.95;;;73.57;;
76604;SDS011;73179;50.978;16.998;2024-01-10T12:52:13;147.38;;;68.57;;
76604;SDS011;73179;50.978;16.998;2024-01-10T12:54:40;142.95;;;69.05;;
76604;SDS011;73179;50.978;16.998;2024-01-10T12:57:06;131.93;;;62.83;;
76604;SDS011;73179;50.978;16.998;2024-01-10T12:59:35;128.93;;;60.45;;
76604;SDS011;73179;50.978;16.998;2024-01-10T13:02:01;140.13;;;64.18;;
76604;SDS011;73179;50.978;16.998;2024-01-10T13:04:27;125.10;;;53.47;;
76604;SDS011;73179;50.978;16.998;2024-01-10T13:06:53;140.50;;;64.45;;
76604;SDS011;73179;50.978;16.998;2024-01-10T13:11:46;131.10;;;62.88;;
76604;SDS011;73179;50.978;16.998;2024-01-10T13:14:12;139.82;;;62.60;;
76604;SDS011;73179;50.978;16.998;2024-01-10T13:16:41;139.82;;;59.10;;
76604;SDS011;73179;50.978;16.998;2024-01-10T13:19:07;128.98;;;63.08;;
76604;SDS011;73179;50.978;16.998;2024-01-10T13:21:33;137.38;;;61.85;;
76604;SDS011;73179;50.978;16.998;2024-01-10T13:24:00;139.02;;;65.22;;
76604;SDS011;73179;50.978;16.998;2024-01-10T13:26:26;138.93;;;65.57;;
76604;SDS011;73179;50.978;16.998;2024-01-10T13:28:52;142.52;;;65.35;;
76604;SDS011;73179;50.978;16.998;2024-01-10T13:31:18;149.60;;;67.78;;
76604;SDS011;73179;50.978;16.998;2024-01-10T13:33:44;151.32;;;70.60;;
76604;SDS011;73179;50.978;16.998;2024-01-10T13:36:10;146.85;;;66.82;;
76604;SDS011;73179;50.978;16.998;2024-01-10T13:41:34;151.40;;;62.97;;
76604;SDS011;73179;50.978;16.998;2024-01-10T13:44:02;155.95;;;68.50;;
76604;SDS011;73179;50.978;16.998;2024-01-10T13:46:30;143.65;;;71.43;;
76604;SDS011;73179;50.978;16.998;2024-01-10T13:48:59;141.23;;;64.82;;
76604;SDS011;73179;50.978;16.998;2024-01-10T13:51:26;153.75;;;68.85;;
76604;SDS011;73179;50.978;16.998;2024-01-10T13:53:59;149.95;;;68.32;;
76604;SDS011;73179;50.978;16.998;2024-01-10T13:56:25;141.65;;;63.53;;
76604;SDS011;73179;50.978;16.998;2024-01-10T13:58:53;152.27;;;67.38;;
76604;SDS011;73179;50.978;16.998;2024-01-10T14:01:19;140.70;;;66.45;;
76604;SDS011;73179;50.978;16.998;2024-01-10T14:03:46;143.52;;;67.57;;
76604;SDS011;73179;50.978;16.998;2024-01-10T14:06:12;160.35;;;69.15;;
76604;SDS011;73179;50.978;16.998;2024-01-10T14:11:06;171.02;;;76.82;;
76604;SDS011;73179;50.978;16.998;2024-01-10T14:13:32;175.65;;;70.28;;
76604;SDS011;73179;50.978;16.998;2024-01-10T14:15:58;159.57;;;69.93;;
76604;SDS011;73179;50.978;16.998;2024-01-10T14:18:25;172.40;;;74.00;;
76604;SDS011;73179;50.978;16.998;2024-01-10T14:20:51;163.48;;;75.78;;
76604;SDS011;73179;50.978;16.998;2024-01-10T14:23:17;172.23;;;75.78;;
76604;SDS011;73179;50.978;16.998;2024-01-10T14:25:43;141.82;;;68.20;;
76604;SDS011;73179;50.978;16.998;2024-01-10T14:30:35;163.85;;;70.28;;
76604;SDS011;73179;50.978;16.998;2024-01-10T14:33:01;158.98;;;73.78;;
76604;SDS011;73179;50.978;16.998;2024-01-10T14:35:27;165.65;;;71.70;;
76604;SDS011;73179;50.978;16.998;2024-01-10T14:37:53;154.77;;;72.60;;
76604;SDS011;73179;50.978;16.998;2024-01-10T14:40:19;174.35;;;79.35;;
76604;SDS011;73179;50.978;16.998;2024-01-10T14:42:48;156.13;;;71.65;;
76604;SDS011;73179;50.978;16.998;2024-01-10T14:45:13;160.80;;;71.43;;
76604;SDS011;73179;50.978;16.998;2024-01-10T14:47:40;139.10;;;65.95;;
76604;SDS011;73179;50.978;16.998;2024-01-10T14:50:11;154.63;;;69.03;;
76604;SDS011;73179;50.978;16.998;2024-01-10T14:52:41;157.55;;;69.85;;